createdAt,value
2023-04-28T00:01:57.055Z,67.8
2023-04-28T00:08:08.157Z,66.4
2023-04-28T00:14:00.158Z,67.8
2023-04-28T00:26:36.991Z,67.8
2023-04-28T00:32:40.717Z,70.7
2023-04-28T00:38:33.797Z,71.9
2023-04-28T00:44:26.824Z,72.9
2023-04-28T00:50:19.087Z,73.2
2023-04-28T00:56:10.237Z,74.7
2023-04-28T01:02:01.771Z,76.2
2023-04-28T01:07:53.381Z,78.1
2023-04-28T01:13:45.426Z,79.8
2023-04-28T01:19:38.131Z,79.7
2023-04-28T01:25:31.457Z,79.5
2023-04-28T01:31:23.669Z,79.3
2023-04-28T01:37:15.336Z,79
2023-04-28T01:43:06.936Z,79.2
2023-04-28T01:48:59.613Z,81.5
2023-04-28T01:54:50.606Z,85
2023-04-28T02:00:41.133Z,85.9
2023-04-28T02:06:32.036Z,87.4
2023-04-28T02:12:22.704Z,88.7
2023-04-28T02:18:13.806Z,89.2
2023-04-28T02:24:05.331Z,88.9
2023-04-28T02:29:54.532Z,89
2023-04-28T02:35:44.539Z,88.7
2023-04-28T02:41:36.779Z,87
2023-04-28T02:47:28.934Z,87.6
2023-04-28T02:54:29.315Z,87.1
2023-04-28T03:00:21.276Z,87.2
2023-04-28T03:06:13.671Z,87.1
2023-04-28T03:12:05.463Z,87.4
2023-04-28T03:17:57.861Z,90
2023-04-28T03:23:50.642Z,92.4
2023-04-28T03:29:42.872Z,92.3
2023-04-28T03:35:35.559Z,93.3
2023-04-28T03:41:27.937Z,91.3
2023-04-28T03:47:19.928Z,96.7
2023-04-28T03:53:11.882Z,96
2023-04-28T03:59:04.395Z,95
2023-04-28T04:04:55.238Z,95.5
2023-04-28T04:10:47.057Z,97
2023-04-28T04:16:39.375Z,95.8
2023-04-28T04:22:31.850Z,93.8
2023-04-28T04:28:23.337Z,93.6
2023-04-28T04:34:13.735Z,93.8
2023-04-28T04:40:06.430Z,93.2
2023-04-28T04:45:58.509Z,94.6
2023-04-28T04:51:50.037Z,93.8
2023-04-28T04:57:42.177Z,94
2023-04-28T05:03:34.029Z,93.7
2023-04-28T05:09:26.037Z,92.7
2023-04-28T05:15:17.888Z,93.4
2023-04-28T05:21:10.861Z,93.3
2023-04-28T05:27:00.947Z,94.5
2023-04-28T05:32:51.432Z,93.6
2023-04-28T05:38:43.117Z,94.6
2023-04-28T05:44:34.181Z,96.4
2023-04-28T05:50:27.247Z,96.9
2023-04-28T05:56:19.376Z,95.9
2023-04-28T06:02:09.521Z,96.2
2023-04-28T06:08:00.578Z,97
2023-04-28T06:13:51.223Z,100
2023-04-28T06:19:43.402Z,100
2023-04-28T06:25:34.542Z,100
2023-04-28T06:31:25.447Z,100
2023-04-28T06:37:16.600Z,100
2023-04-28T06:43:08.617Z,100
2023-04-28T06:49:02.011Z,100
2023-04-28T06:54:55.206Z,100
2023-04-28T07:00:47.126Z,100
2023-04-28T07:06:40.002Z,100
2023-04-28T07:12:37.898Z,100
2023-04-28T07:18:33.218Z,99.6
2023-04-28T07:24:26.559Z,98.9
2023-04-28T07:30:30.034Z,99
2023-04-28T07:36:22.915Z,98.2
2023-04-28T07:42:17.438Z,97.6
2023-04-28T07:48:10.765Z,96.9
2023-04-28T07:54:04.291Z,96.9
2023-04-28T07:59:57.635Z,95.9
2023-04-28T08:05:50.277Z,94.8
2023-04-28T08:11:43.556Z,95.8
2023-04-28T08:17:35.602Z,95.1
2023-04-28T08:23:28.376Z,94.1
2023-04-28T08:29:20.486Z,94.6
2023-04-28T08:35:12.857Z,94
2023-04-28T08:41:05.153Z,94.1
2023-04-28T08:46:56.911Z,94.9
2023-04-28T08:52:49.553Z,95
2023-04-28T08:58:40.916Z,94.8
2023-04-28T09:04:32.467Z,94.8
2023-04-28T09:10:26.368Z,95.6
2023-04-28T09:16:18.441Z,97.3
2023-04-28T09:22:28.602Z,97
2023-04-28T09:28:34.176Z,97.2
2023-04-28T09:34:26.231Z,94.4
2023-04-28T09:40:18.367Z,93.8
2023-04-28T09:46:09.527Z,93.7
2023-04-28T09:52:01.620Z,92.3
2023-04-28T09:57:54.244Z,93.7
2023-04-28T10:03:48.721Z,100
2023-04-28T10:09:44.009Z,99.5
2023-04-28T10:15:34.734Z,98.5
2023-04-28T10:21:26.964Z,97.2
2023-04-28T10:27:18.276Z,94.6
2023-04-28T10:33:10.780Z,93.4
2023-04-28T10:39:04.065Z,92.8
2023-04-28T10:44:58.651Z,91.7
2023-04-28T10:50:52.961Z,90.2
2023-04-28T10:56:45.623Z,90.9
2023-04-28T11:02:37.059Z,89.8
2023-04-28T11:08:35.200Z,88.3
2023-04-28T11:14:26.411Z,88.7
2023-04-28T11:20:19.447Z,93.2
2023-04-28T11:26:11.658Z,97
2023-04-28T11:32:05.019Z,97.7
2023-04-28T11:37:57.172Z,96.8
2023-04-28T11:43:49.671Z,97.5
2023-04-28T11:49:41.546Z,98.2
2023-04-28T11:55:33.532Z,98.3
2023-04-28T12:01:27.524Z,99
2023-04-28T12:07:20.380Z,98.1
2023-04-28T12:13:11.965Z,99.1
2023-04-28T12:19:04.801Z,96.9
2023-04-28T12:24:56.962Z,97
2023-04-28T12:30:49.429Z,97.2
2023-04-28T12:36:43.203Z,95.6
2023-04-28T12:42:36.823Z,94.7
2023-04-28T12:48:28.559Z,93.5
2023-04-28T12:54:19.200Z,92.8
2023-04-28T13:00:11.438Z,91.3
2023-04-28T13:06:02.308Z,92
2023-04-28T13:11:55.005Z,90.2
2023-04-28T13:17:47.082Z,89.5
2023-04-28T13:23:40.379Z,87.5
2023-04-28T13:29:32.734Z,88.4
2023-04-28T13:35:26.262Z,87.1
2023-04-28T13:41:20.743Z,84.2
2023-04-28T13:47:13.769Z,84.2
2023-04-28T13:53:06.225Z,82.6
2023-04-28T13:58:58.445Z,86.6
2023-04-28T14:04:52.500Z,92.7
2023-04-28T14:10:46.028Z,97.3
2023-04-28T14:16:37.062Z,89.6
2023-04-28T14:22:29.854Z,87.9
2023-04-28T14:28:21.688Z,90.3
2023-04-28T14:34:14.402Z,85.9
2023-04-28T14:40:06.584Z,85.4
2023-04-28T14:45:58.948Z,86.5
2023-04-28T14:51:51.990Z,85.4
2023-04-28T14:57:44.172Z,86.3
2023-04-28T15:03:37.154Z,87.7
2023-04-28T15:09:29.874Z,92.6
2023-04-28T15:15:21.963Z,100
2023-04-28T15:21:14.170Z,94.8
2023-04-28T15:27:06.149Z,92.1
2023-04-28T15:32:58.334Z,80.8
2023-04-28T15:38:50.456Z,75.1
2023-04-28T15:44:42.754Z,71.6
2023-04-28T15:50:35.294Z,72.1
2023-04-28T15:56:27.426Z,69.2
2023-04-28T16:02:20.309Z,66.1
2023-04-28T16:08:12.918Z,63.6
2023-04-28T16:14:05.078Z,64.1
2023-04-28T16:19:57.504Z,62.7
2023-04-28T16:25:49.603Z,64.6
2023-04-28T16:31:42.327Z,65.4
2023-04-28T16:37:34.708Z,65.9
2023-04-28T16:43:32.090Z,66.6
2023-04-28T16:49:24.187Z,69.4
2023-04-28T16:55:16.014Z,71.1
2023-04-28T17:01:14.554Z,72.7
2023-04-28T17:07:24.984Z,72.9
2023-04-28T17:13:27.240Z,74.1
2023-04-28T17:19:34.203Z,75.4
2023-04-28T17:25:43.983Z,76.9
2023-04-28T17:31:45.175Z,77.1
2023-04-28T17:37:59.264Z,77.7
2023-04-28T17:44:04.672Z,77.8
2023-04-28T17:50:09.568Z,78.5
2023-04-28T17:56:02.939Z,79.4
2023-04-28T18:01:54.667Z,79.2
2023-04-28T18:07:48.586Z,78.7
2023-04-28T18:13:40.564Z,77.3
2023-04-28T18:19:33.406Z,76.4
2023-04-28T18:25:29.590Z,76.1
2023-04-28T18:31:44.285Z,76.6
2023-04-28T18:37:44.485Z,75.7
2023-04-28T18:43:48.581Z,75.8
2023-04-28T18:49:45.780Z,75.7
2023-04-28T18:56:50.924Z,75.7
2023-04-28T19:02:41.937Z,75.3
2023-04-28T19:14:26.980Z,75.5
2023-04-28T19:20:25.669Z,75.9
2023-04-28T19:26:17.171Z,75.8
2023-04-28T19:32:09.666Z,76.7
2023-04-28T19:38:01.116Z,76.8
2023-04-28T19:43:53.454Z,77.6
2023-04-28T19:49:51.437Z,77.1
2023-04-28T19:55:43.015Z,77.4
2023-04-28T20:01:36.063Z,77.9
2023-04-28T20:07:29.123Z,78.7
2023-04-28T20:13:20.944Z,79.2
2023-04-28T20:19:19.137Z,79.6
2023-04-28T20:25:18.469Z,80.6
2023-04-28T20:31:10.069Z,80.5
2023-04-28T20:37:03.440Z,81.2
2023-04-28T20:42:56.346Z,81
2023-04-28T20:48:48.367Z,81.5
2023-04-28T20:54:41.362Z,82.3
2023-04-28T21:00:33.090Z,82.2
2023-04-28T21:06:30.315Z,83.1
2023-04-28T21:32:21.263Z,84.3
2023-04-28T21:38:44.759Z,84.1
2023-04-28T21:44:54.443Z,84.9
2023-04-28T21:50:51.109Z,85.6
2023-04-28T21:56:46.990Z,85.2
2023-04-28T22:02:42.603Z,85.3
2023-04-28T22:08:48.360Z,85.9
2023-04-28T22:14:43.298Z,86
2023-04-28T22:20:34.880Z,86.2
2023-04-28T22:26:42.695Z,86.3
2023-04-28T23:03:49.520Z,100
2023-04-28T23:09:51.193Z,99.5
2023-04-28T23:15:44.220Z,99
2023-04-28T23:21:37.197Z,99.9
2023-04-28T23:27:29.628Z,100
2023-04-28T23:33:21.902Z,100
2023-04-28T23:39:13.223Z,99.9
2023-04-28T23:45:05.607Z,100
2023-04-28T23:50:57.096Z,97.8
2023-04-28T23:56:49.210Z,97.1
